Time;durP1;ratioP1;P1;durP2;ratioP2;P2;SDS_P1;SDS_P2;PMS_P1;PMS_P2;Temp;Humidity;BMP_temperature;BMP_pressure;BME280_temperature;BME280_humidity;BME280_pressure;Samples;Min_cycle;Max_cycle;Signal;HPM_P1;HPM_P2
2023/06/05 00:00:31;;;;;;;3.10;1.40;;;;;;;;;;5025227;28;20044;-79
2023/06/05 00:02:56;;;;;;;3.97;1.50;;;;;;;;;;5024571;28;20511;-80
2023/06/05 00:05:25;;;;;;;4.07;1.58;;;;;;;;;;5022691;28;20472;-79
2023/06/05 00:07:51;;;;;;;3.17;1.40;;;;;;;;;;5021125;28;20047;-80
2023/06/05 00:10:16;;;;;;;4.72;1.58;;;;;;;;;;5039494;28;20357;-80
2023/06/05 00:12:42;;;;;;;3.97;1.50;;;;;;;;;;5008294;28;20565;-80
2023/06/05 00:15:08;;;;;;;3.50;1.30;;;;;;;;;;5040294;28;20443;-79
2023/06/05 00:17:33;;;;;;;3.15;1.38;;;;;;;;;;5012789;28;20071;-79
2023/06/05 00:19:59;;;;;;;4.25;1.08;;;;;;;;;;5039398;28;20033;-79
2023/06/05 00:22:27;;;;;;;3.03;1.25;;;;;;;;;;5017697;28;20500;-79
2023/06/05 00:24:53;;;;;;;4.45;1.55;;;;;;;;;;5037389;28;20249;-81
2023/06/05 00:27:19;;;;;;;6.03;1.10;;;;;;;;;;5037788;28;20047;-80
2023/06/05 00:29:44;;;;;;;3.00;1.33;;;;;;;;;;5037245;28;20030;-80
2023/06/05 00:32:10;;;;;;;3.08;1.27;;;;;;;;;;5019541;28;20424;-80
2023/06/05 00:34:35;;;;;;;3.20;1.30;;;;;;;;;;5020767;28;20101;-80
2023/06/05 00:37:00;;;;;;;4.38;1.63;;;;;;;;;;5016463;28;20036;-80
2023/06/05 00:39:26;;;;;;;3.35;1.20;;;;;;;;;;5033871;28;20103;-79
2023/06/05 00:41:51;;;;;;;2.90;1.10;;;;;;;;;;5019947;28;20278;-79
2023/06/05 00:44:18;;;;;;;2.83;1.13;;;;;;;;;;5018593;28;20036;-81
2023/06/05 00:46:46;;;;;;;3.80;1.25;;;;;;;;;;5036911;28;20515;-80
2023/06/05 00:49:12;;;;;;;3.38;1.27;;;;;;;;;;5034582;28;20120;-80
2023/06/05 00:51:39;;;;;;;2.55;1.13;;;;;;;;;;5035607;28;20088;-79
2023/06/05 00:54:05;;;;;;;5.82;1.50;;;;;;;;;;5019943;28;20041;-79
2023/06/05 00:56:32;;;;;;;4.03;1.33;;;;;;;;;;5019444;28;20068;-80
2023/06/05 00:58:58;;;;;;;4.45;1.40;;;;;;;;;;5018980;28;20036;-79
2023/06/05 01:01:24;;;;;;;2.83;1.25;;;;;;;;;;5037230;28;20468;-79
2023/06/05 01:03:50;;;;;;;6.93;1.20;;;;;;;;;;5015349;28;20664;-79
2023/06/05 01:06:17;;;;;;;3.75;1.08;;;;;;;;;;5018615;28;20041;-79
2023/06/05 01:08:44;;;;;;;2.10;1.07;;;;;;;;;;5017523;28;20033;-79
2023/06/05 01:11:10;;;;;;;2.47;1.10;;;;;;;;;;5018998;28;20091;-79
2023/06/05 01:13:40;;;;;;;2.60;1.10;;;;;;;;;;5036956;28;20981;-79
2023/06/05 01:16:09;;;;;;;3.95;1.10;;;;;;;;;;5014477;28;20095;-79
2023/06/05 01:18:40;;;;;;;2.40;1.10;;;;;;;;;;5016519;28;20113;-79
2023/06/05 01:21:13;;;;;;;4.00;1.20;;;;;;;;;;5014264;28;20046;-79
2023/06/05 01:23:43;;;;;;;2.17;0.90;;;;;;;;;;5019371;28;20265;-79
2023/06/05 01:26:21;;;;;;;2.75;1.02;;;;;;;;;;5018298;28;20080;-79
2023/06/05 01:28:49;;;;;;;2.95;1.20;;;;;;;;;;5020031;28;20560;-80
2023/06/05 01:31:19;;;;;;;2.88;1.10;;;;;;;;;;5019676;28;20029;-79
2023/06/05 01:33:49;;;;;;;3.70;1.10;;;;;;;;;;5020002;28;20453;-79
2023/06/05 01:36:15;;;;;;;2.33;0.95;;;;;;;;;;5017522;28;20087;-79
2023/06/05 01:38:42;;;;;;;2.60;1.02;;;;;;;;;;5009928;28;20033;-79
2023/06/05 01:41:10;;;;;;;3.43;1.10;;;;;;;;;;5017926;28;20037;-79
2023/06/05 01:43:35;;;;;;;;;;;;;;;;;;5022680;28;20940;-79
2023/06/05 01:46:01;;;;;;;2.92;1.33;;;;;;;;;;5015236;28;19979;-79
2023/06/05 01:48:30;;;;;;;1.83;0.80;;;;;;;;;;5019907;28;20184;-79
2023/06/05 01:50:59;;;;;;;2.95;1.00;;;;;;;;;;5009779;28;20041;-79
2023/06/05 01:53:25;;;;;;;1.88;0.88;;;;;;;;;;5020427;28;20733;-79
2023/06/05 01:55:56;;;;;;;3.17;1.00;;;;;;;;;;5016927;28;20622;-79
2023/06/05 01:58:26;;;;;;;3.45;1.10;;;;;;;;;;5016646;28;20051;-79
2023/06/05 02:00:56;;;;;;;2.90;1.10;;;;;;;;;;5035238;28;20504;-79
2023/06/05 02:03:22;;;;;;;2.50;1.02;;;;;;;;;;5017646;28;20033;-79
2023/06/05 02:05:48;;;;;;;4.00;1.20;;;;;;;;;;4999177;28;20172;-79
2023/06/05 02:08:19;;;;;;;3.05;1.10;;;;;;;;;;5019625;28;20053;-79
2023/06/05 02:10:45;;;;;;;3.30;1.10;;;;;;;;;;5020022;28;20131;-79
2023/06/05 02:13:11;;;;;;;2.90;0.98;;;;;;;;;;5021862;28;20037;-80
2023/06/05 02:15:37;;;;;;;3.28;1.20;;;;;;;;;;5019767;28;20049;-79
2023/06/05 02:18:04;;;;;;;2.63;1.00;;;;;;;;;;5017673;28;20045;-79
2023/06/05 02:20:30;;;;;;;3.45;1.20;;;;;;;;;;5023497;28;20045;-79
2023/06/05 02:22:56;;;;;;;4.00;1.30;;;;;;;;;;5039430;28;20029;-79
2023/06/05 02:25:25;;;;;;;2.47;1.10;;;;;;;;;;5038981;28;20040;-79
2023/06/05 02:27:51;;;;;;;2.50;1.00;;;;;;;;;;5039472;28;20584;-79
2023/06/05 02:30:16;;;;;;;2.55;0.98;;;;;;;;;;5038558;28;20036;-79
2023/06/05 02:32:43;;;;;;;3.30;1.20;;;;;;;;;;5038910;28;20508;-79
2023/06/05 02:35:12;;;;;;;2.38;0.93;;;;;;;;;;5037935;28;20033;-79
2023/06/05 02:37:43;;;;;;;4.63;1.35;;;;;;;;;;5036967;28;20033;-79
2023/06/05 02:40:09;;;;;;;2.25;1.00;;;;;;;;;;5005154;28;20120;-79
2023/06/05 02:42:35;;;;;;;2.40;1.05;;;;;;;;;;5037890;28;20068;-79
2023/06/05 02:45:01;;;;;;;2.42;1.00;;;;;;;;;;5035141;28;20721;-79
2023/06/05 02:47:26;;;;;;;2.67;1.08;;;;;;;;;;5020247;28;20133;-79
2023/06/05 02:49:51;;;;;;;8.50;1.30;;;;;;;;;;5036719;28;20041;-79
2023/06/05 02:52:17;;;;;;;3.00;1.23;;;;;;;;;;5005274;28;20063;-79
2023/06/05 02:54:42;;;;;;;2.33;1.10;;;;;;;;;;5040351;28;20028;-82
2023/06/05 02:57:08;;;;;;;3.38;1.00;;;;;;;;;;5037965;28;20833;-79
2023/06/05 02:59:39;;;;;;;2.97;1.10;;;;;;;;;;5034797;28;20382;-79
2023/06/05 03:02:07;;;;;;;2.53;0.98;;;;;;;;;;5021716;28;20805;-79
2023/06/05 03:04:33;;;;;;;2.88;1.30;;;;;;;;;;5014207;28;20038;-79
2023/06/05 03:07:03;;;;;;;5.00;1.00;;;;;;;;;;5037967;28;20037;-79
2023/06/05 03:09:30;;;;;;;3.28;0.93;;;;;;;;;;5038219;28;20079;-79
2023/06/05 03:11:55;;;;;;;2.13;0.93;;;;;;;;;;5039287;28;20483;-79
2023/06/05 03:14:20;;;;;;;3.70;1.10;;;;;;;;;;5038763;28;20052;-79
2023/06/05 03:16:46;;;;;;;3.05;0.90;;;;;;;;;;5019899;28;20955;-80
2023/06/05 03:19:11;;;;;;;3.00;1.10;;;;;;;;;;5020922;28;20526;-79
2023/06/05 03:21:39;;;;;;;2.05;1.00;;;;;;;;;;5036003;28;20048;-79
2023/06/05 03:24:14;;;;;;;3.10;1.10;;;;;;;;;;5017266;28;20045;-79
2023/06/05 03:26:40;;;;;;;2.67;1.10;;;;;;;;;;5007800;28;20044;-79
2023/06/05 03:29:07;;;;;;;3.50;1.10;;;;;;;;;;5038056;28;20476;-79
2023/06/05 03:31:32;;;;;;;2.80;1.00;;;;;;;;;;5020653;28;20040;-77
2023/06/05 03:33:59;;;;;;;2.30;1.00;;;;;;;;;;5005023;28;20565;-76
2023/06/05 03:36:25;;;;;;;2.90;1.17;;;;;;;;;;5002070;28;20056;-77
2023/06/05 03:38:50;;;;;;;2.33;1.00;;;;;;;;;;5012731;28;20032;-77
2023/06/05 03:41:16;;;;;;;3.10;0.90;;;;;;;;;;5017689;28;20037;-79
2023/06/05 03:43:41;;;;;;;3.78;1.10;;;;;;;;;;5020639;28;20037;-77
2023/06/05 03:46:07;;;;;;;3.22;1.08;;;;;;;;;;5037414;28;20037;-77
2023/06/05 03:48:32;;;;;;;2.35;1.10;;;;;;;;;;5003084;28;20056;-76
2023/06/05 03:51:00;;;;;;;3.08;0.93;;;;;;;;;;5036989;28;20162;-77
2023/06/05 03:53:29;;;;;;;;;;;;;;;;;;5037767;28;20162;-76
2023/06/05 03:55:54;;;;;;;2.95;1.15;;;;;;;;;;5035650;28;20179;-77
2023/06/05 03:58:20;;;;;;;2.55;1.05;;;;;;;;;;5019130;28;20033;-76
2023/06/05 04:00:48;;;;;;;3.30;1.20;;;;;;;;;;5018428;28;20036;-78
2023/06/05 04:03:14;;;;;;;3.00;1.30;;;;;;;;;;5036510;28;20032;-77
2023/06/05 04:05:40;;;;;;;3.20;1.10;;;;;;;;;;5014902;28;20044;-78
2023/06/05 04:08:06;;;;;;;2.55;0.95;;;;;;;;;;5003099;28;20246;-77
2023/06/05 04:10:32;;;;;;;3.35;1.30;;;;;;;;;;5020235;28;20492;-78
2023/06/05 04:12:58;;;;;;;4.15;1.10;;;;;;;;;;5037352;28;20032;-78
2023/06/05 04:15:23;;;;;;;4.13;1.20;;;;;;;;;;5035366;28;20124;-79
2023/06/05 04:17:49;;;;;;;4.63;1.08;;;;;;;;;;5037775;28;20040;-78
2023/06/05 04:20:14;;;;;;;3.65;1.20;;;;;;;;;;5034869;28;20048;-78
2023/06/05 04:22:43;;;;;;;3.83;1.38;;;;;;;;;;4993593;28;20034;-78
2023/06/05 04:25:12;;;;;;;2.53;1.00;;;;;;;;;;5000172;28;20330;-77
2023/06/05 04:27:42;;;;;;;3.33;1.30;;;;;;;;;;4997101;28;20048;-78
2023/06/05 04:30:09;;;;;;;3.97;1.20;;;;;;;;;;4976486;28;20251;-74
2023/06/05 04:32:38;;;;;;;2.88;1.17;;;;;;;;;;4982857;28;20814;-78
2023/06/05 04:35:05;;;;;;;3.53;1.15;;;;;;;;;;4998478;28;20718;-75
2023/06/05 04:37:30;;;;;;;3.72;1.20;;;;;;;;;;5014161;28;20554;-74
2023/06/05 04:39:56;;;;;;;4.78;1.33;;;;;;;;;;5009328;28;20144;-75
2023/06/05 04:42:21;;;;;;;3.30;1.20;;;;;;;;;;4997194;28;20116;-77
2023/06/05 04:45:01;;;;;;;4.18;1.02;;;;;;;;;;4998472;28;20033;-76
2023/06/05 04:47:27;;;;;;;3.78;1.20;;;;;;;;;;4993805;28;20046;-75
2023/06/05 04:49:53;;;;;;;2.63;1.00;;;;;;;;;;5008012;28;20041;-74
2023/06/05 04:52:23;;;;;;;3.47;1.20;;;;;;;;;;5012663;28;20354;-74
2023/06/05 04:54:49;;;;;;;3.72;1.10;;;;;;;;;;4997666;28;20301;-75
2023/06/05 04:57:16;;;;;;;3.88;1.40;;;;;;;;;;4998300;28;20034;-75
2023/06/05 04:59:42;;;;;;;2.67;1.30;;;;;;;;;;5014792;28;20030;-74
2023/06/05 05:02:08;;;;;;;2.65;1.00;;;;;;;;;;5012236;28;20053;-74
2023/06/05 05:04:33;;;;;;;2.85;1.30;;;;;;;;;;5013522;28;20709;-75
2023/06/05 05:07:00;;;;;;;4.68;1.20;;;;;;;;;;5012960;28;20084;-74
2023/06/05 05:09:32;;;;;;;3.47;1.30;;;;;;;;;;5004936;28;20041;-74
2023/06/05 05:11:58;;;;;;;3.20;1.08;;;;;;;;;;5013863;28;20121;-74
2023/06/05 05:14:26;;;;;;;6.45;1.30;;;;;;;;;;4980469;28;20037;-74
2023/06/05 05:16:52;;;;;;;4.78;1.35;;;;;;;;;;4978633;28;20747;-75
2023/06/05 05:19:18;;;;;;;4.25;1.45;;;;;;;;;;4997990;28;20033;-75
2023/06/05 05:21:45;;;;;;;4.13;1.30;;;;;;;;;;5019760;28;20048;-74
2023/06/05 05:24:10;;;;;;;2.95;1.20;;;;;;;;;;5024419;28;20488;-74
2023/06/05 05:26:36;;;;;;;4.43;1.30;;;;;;;;;;5015772;28;20111;-75
2023/06/05 05:29:01;;;;;;;3.47;1.30;;;;;;;;;;5022630;28;20042;-75
2023/06/05 05:31:29;;;;;;;4.40;1.70;;;;;;;;;;5014374;28;20440;-73
2023/06/05 05:33:55;;;;;;;3.30;1.10;;;;;;;;;;5025138;28;20063;-74
2023/06/05 05:36:20;;;;;;;4.22;1.20;;;;;;;;;;5023868;28;20723;-74
2023/06/05 05:38:48;;;;;;;3.10;1.38;;;;;;;;;;5025120;28;20144;-80
2023/06/05 05:41:13;;;;;;;;;;;;;;;;;;5007482;28;20058;-80
2023/06/05 05:43:39;;;;;;;4.32;1.10;;;;;;;;;;5023403;28;20333;-81
2023/06/05 05:46:04;;;;;;;3.50;1.45;;;;;;;;;;5004532;28;20099;-81
2023/06/05 05:48:30;;;;;;;3.92;1.40;;;;;;;;;;5022625;28;20052;-80
2023/06/05 05:50:56;;;;;;;3.95;1.35;;;;;;;;;;5021951;28;20030;-79
2023/06/05 05:53:21;;;;;;;6.60;1.48;;;;;;;;;;5023036;28;20071;-80
2023/06/05 05:55:46;;;;;;;3.20;1.00;;;;;;;;;;5012221;28;20025;-79
2023/06/05 05:58:12;;;;;;;9.68;1.35;;;;;;;;;;5021867;28;20045;-82
2023/06/05 06:00:37;;;;;;;3.78;1.33;;;;;;;;;;5022381;28;20048;-81
2023/06/05 06:03:03;;;;;;;3.60;1.10;;;;;;;;;;5004732;28;20484;-82
2023/06/05 06:05:30;;;;;;;2.78;1.13;;;;;;;;;;5013737;28;20032;-83
2023/06/05 06:07:59;;;;;;;3.08;1.35;;;;;;;;;;5020385;28;20096;-82
2023/06/05 06:10:26;;;;;;;3.42;1.10;;;;;;;;;;5020199;28;20128;-84
2023/06/05 06:12:53;;;;;;;3.45;1.40;;;;;;;;;;5004393;28;20452;-83
2023/06/05 06:15:18;;;;;;;3.80;1.23;;;;;;;;;;4996271;28;20046;-81
2023/06/05 06:17:44;;;;;;;3.45;1.10;;;;;;;;;;5024260;28;20354;-83
2023/06/05 06:20:12;;;;;;;2.83;1.13;;;;;;;;;;5022890;28;20029;-82
2023/06/05 06:22:38;;;;;;;3.22;1.10;;;;;;;;;;5010338;28;20442;-82
2023/06/05 06:25:04;;;;;;;4.00;1.20;;;;;;;;;;5009516;28;20033;-82
2023/06/05 06:27:29;;;;;;;2.85;1.10;;;;;;;;;;5021244;28;20032;-82
2023/06/05 06:29:55;;;;;;;3.05;1.30;;;;;;;;;;5016482;28;20560;-82
2023/06/05 06:32:21;;;;;;;6.38;1.30;;;;;;;;;;5026745;28;20047;-82
2023/06/05 06:34:47;;;;;;;3.47;1.23;;;;;;;;;;5024349;28;20826;-82
2023/06/05 06:37:14;;;;;;;4.07;1.17;;;;;;;;;;5019953;28;20044;-82
2023/06/05 06:39:40;;;;;;;;;;;;;;;;;;4993164;28;20033;-82
2023/06/05 06:42:06;;;;;;;6.20;1.40;;;;;;;;;;4991906;28;20007;-82
2023/06/05 06:44:31;;;;;;;5.45;1.20;;;;;;;;;;5022667;28;20048;-81
2023/06/05 06:47:19;;;;;;;3.10;1.20;;;;;;;;;;5001274;28;20038;-82
2023/06/05 06:49:46;;;;;;;3.15;1.15;;;;;;;;;;4950116;28;20146;-82
2023/06/05 06:52:11;;;;;;;3.40;1.07;;;;;;;;;;4936250;28;20043;-82
2023/06/05 06:54:37;;;;;;;6.82;3.15;;;;;;;;;;4912114;28;20541;-81
2023/06/05 06:57:03;;;;;;;5.85;3.38;;;;;;;;;;4924132;28;20028;-82
2023/06/05 06:59:33;;;;;;;6.57;3.00;;;;;;;;;;4920141;28;20043;-81
2023/06/05 07:02:13;;;;;;;6.28;1.60;;;;;;;;;;4938673;28;20083;-82
2023/06/05 07:04:41;;;;;;;4.63;0.93;;;;;;;;;;4931232;28;20043;-82
2023/06/05 07:07:08;;;;;;;3.78;1.38;;;;;;;;;;4919361;28;20692;-82
2023/06/05 07:09:33;;;;;;;5.10;1.30;;;;;;;;;;4927295;28;20039;-82
2023/06/05 07:12:06;;;;;;;3.33;1.20;;;;;;;;;;4929421;28;20233;-83
2023/06/05 07:14:35;;;;;;;5.28;1.40;;;;;;;;;;4929360;28;20531;-82
2023/06/05 07:17:01;;;;;;;3.60;1.50;;;;;;;;;;4924905;28;20039;-82
2023/06/05 07:19:28;;;;;;;3.42;1.10;;;;;;;;;;4930782;28;20044;-83
2023/06/05 07:21:57;;;;;;;3.78;1.58;;;;;;;;;;4935639;28;20670;-81
2023/06/05 07:24:27;;;;;;;2.33;1.05;;;;;;;;;;4920993;29;20715;-82
2023/06/05 07:27:03;;;;;;;5.50;1.10;;;;;;;;;;4952783;28;20335;-82
2023/06/05 07:29:32;;;;;;;5.38;1.67;;;;;;;;;;5005511;28;20045;-82
2023/06/05 07:31:58;;;;;;;3.80;1.20;;;;;;;;;;5022013;28;20519;-82
2023/06/05 07:34:25;;;;;;;2.20;0.80;;;;;;;;;;5003559;28;20038;-82
2023/06/05 07:36:51;;;;;;;3.00;1.15;;;;;;;;;;4991203;28;21022;-81
2023/06/05 07:39:18;;;;;;;4.45;1.17;;;;;;;;;;4986255;28;20038;-80
2023/06/05 07:41:44;;;;;;;3.00;1.00;;;;;;;;;;5002118;28;20033;-82
2023/06/05 07:44:10;;;;;;;3.65;1.20;;;;;;;;;;5006228;28;20057;-82
2023/06/05 07:46:39;;;;;;;3.35;1.40;;;;;;;;;;5008217;28;23932;-82
2023/06/05 07:49:05;;;;;;;4.65;1.20;;;;;;;;;;4989434;28;20045;-82
2023/06/05 07:51:35;;;;;;;5.50;1.13;;;;;;;;;;5008208;28;20056;-82
2023/06/05 07:54:04;;;;;;;1.98;0.90;;;;;;;;;;5010405;28;20116;-82
2023/06/05 07:56:31;;;;;;;3.17;0.90;;;;;;;;;;5019732;28;20029;-82
2023/06/05 07:58:57;;;;;;;3.90;1.10;;;;;;;;;;5002781;28;20038;-82
2023/06/05 08:01:22;;;;;;;3.42;1.00;;;;;;;;;;5008727;28;20091;-83
2023/06/05 08:03:48;;;;;;;2.83;0.90;;;;;;;;;;5023060;28;20496;-82
2023/06/05 08:06:13;;;;;;;2.10;0.70;;;;;;;;;;5006830;28;20037;-82
2023/06/05 08:08:39;;;;;;;3.22;1.17;;;;;;;;;;5005570;28;20098;-83
2023/06/05 08:11:04;;;;;;;2.63;0.70;;;;;;;;;;5005916;28;20137;-83
2023/06/05 08:13:30;;;;;;;5.75;1.00;;;;;;;;;;5023525;28;20408;-82
2023/06/05 08:15:55;;;;;;;5.93;1.00;;;;;;;;;;5007851;28;20049;-83
2023/06/05 08:18:21;;;;;;;2.03;0.93;;;;;;;;;;5021803;28;20493;-82
2023/06/05 08:20:46;;;;;;;5.57;1.23;;;;;;;;;;5009582;28;20041;-80
2023/06/05 08:23:12;;;;;;;2.90;0.90;;;;;;;;;;5022520;28;20103;-82
2023/06/05 08:25:38;;;;;;;2.70;1.00;;;;;;;;;;5020293;28;20034;-82
2023/06/05 08:28:03;;;;;;;2.55;0.80;;;;;;;;;;5004184;28;20041;-82
2023/06/05 08:30:28;;;;;;;2.88;0.95;;;;;;;;;;5019736;28;20079;-83
2023/06/05 08:32:54;;;;;;;2.92;1.00;;;;;;;;;;5019446;28;20059;-82
2023/06/05 08:35:19;;;;;;;2.80;0.93;;;;;;;;;;5019649;28;20037;-82
2023/06/05 08:37:45;;;;;;;2.47;1.00;;;;;;;;;;5003826;28;20216;-82
2023/06/05 08:40:11;;;;;;;3.15;0.80;;;;;;;;;;5001644;28;20117;-83
2023/06/05 08:42:40;;;;;;;2.67;0.73;;;;;;;;;;4998952;28;20041;-82
2023/06/05 08:45:10;;;;;;;4.35;1.25;;;;;;;;;;5001457;28;20033;-82
2023/06/05 08:47:37;;;;;;;1.90;0.70;;;;;;;;;;5010266;28;20083;-83
2023/06/05 08:50:05;;;;;;;6.25;1.17;;;;;;;;;;5020745;28;20029;-83
2023/06/05 08:52:35;;;;;;;7.63;1.15;;;;;;;;;;5018973;28;20083;-83
2023/06/05 08:55:02;;;;;;;4.30;0.90;;;;;;;;;;5010939;28;20072;-83
2023/06/05 08:57:28;;;;;;;6.00;1.10;;;;;;;;;;5018766;28;20026;-83
2023/06/05 08:59:54;;;;;;;12.35;1.75;;;;;;;;;;5021179;28;20029;-83
2023/06/05 09:02:19;;;;;;;4.72;1.13;;;;;;;;;;5019529;28;20485;-83
2023/06/05 09:04:44;;;;;;;3.40;0.88;;;;;;;;;;5010465;28;20108;-83
2023/06/05 09:07:11;;;;;;;3.78;0.75;;;;;;;;;;5005431;28;20378;-83
2023/06/05 09:09:37;;;;;;;2.97;0.85;;;;;;;;;;5022276;28;20072;-82
2023/06/05 09:12:07;;;;;;;2.90;0.70;;;;;;;;;;5020101;28;20144;-83
2023/06/05 09:14:33;;;;;;;2.58;0.80;;;;;;;;;;5022269;28;20088;-83
2023/06/05 09:17:00;;;;;;;2.25;0.80;;;;;;;;;;5003701;28;20477;-83
2023/06/05 09:19:38;;;;;;;2.30;0.63;;;;;;;;;;5018632;28;20037;-83
2023/06/05 09:22:06;;;;;;;1.17;0.50;;;;;;;;;;5027600;28;20033;-83
2023/06/05 09:24:32;;;;;;;1.50;0.60;;;;;;;;;;5040918;28;20048;-83
2023/06/05 09:27:08;;;;;;;2.85;0.70;;;;;;;;;;5030145;28;20033;-83
2023/06/05 09:29:38;;;;;;;2.38;0.90;;;;;;;;;;5041494;28;20033;-83
2023/06/05 09:32:08;;;;;;;2.42;0.80;;;;;;;;;;5006882;28;20042;-84
2023/06/05 09:34:35;;;;;;;2.42;0.88;;;;;;;;;;5023165;28;20041;-82
2023/06/05 09:37:04;;;;;;;2.42;0.80;;;;;;;;;;5002267;28;20090;-83
2023/06/05 09:39:32;;;;;;;1.63;0.63;;;;;;;;;;5012744;28;20140;-83
2023/06/05 09:41:58;;;;;;;3.30;0.70;;;;;;;;;;5021200;28;20041;-83
2023/06/05 09:44:25;;;;;;;2.38;0.60;;;;;;;;;;5027652;28;20045;-83
2023/06/05 09:47:20;;;;;;;2.58;0.68;;;;;;;;;;5042646;28;20555;-83
2023/06/05 09:49:48;;;;;;;3.30;0.85;;;;;;;;;;4963837;28;20034;-82
2023/06/05 09:52:14;;;;;;;2.47;0.95;;;;;;;;;;4961230;28;20593;-83
2023/06/05 09:54:44;;;;;;;1.90;0.80;;;;;;;;;;4965199;28;20035;-83
2023/06/05 09:57:30;;;;;;;2.13;0.73;;;;;;;;;;4944313;28;20555;-84
2023/06/05 09:59:57;;;;;;;3.08;0.82;;;;;;;;;;4908543;29;20043;-83
2023/06/05 10:02:43;;;;;;;2.55;0.77;;;;;;;;;;4921044;29;20046;-83
2023/06/05 10:05:09;;;;;;;2.83;0.70;;;;;;;;;;4904372;29;20453;-82
2023/06/05 10:07:37;;;;;;;5.38;0.90;;;;;;;;;;4920435;29;20347;-83
2023/06/05 10:10:03;;;;;;;2.70;0.70;;;;;;;;;;4921422;29;20048;-83
2023/06/05 10:12:30;;;;;;;3.78;0.65;;;;;;;;;;4892927;29;20047;-82
2023/06/05 10:14:57;;;;;;;3.85;0.70;;;;;;;;;;4906187;29;20063;-81
2023/06/05 10:17:23;;;;;;;3.65;0.90;;;;;;;;;;4923266;29;20035;-81
2023/06/05 10:19:51;;;;;;;2.78;0.73;;;;;;;;;;4921729;29;20051;-82
2023/06/05 10:22:18;;;;;;;4.63;1.00;;;;;;;;;;4919306;29;20142;-81
2023/06/05 10:24:47;;;;;;;;;;;;;;;;;;4911908;29;20048;-82
2023/06/05 10:27:36;;;;;;;2.63;0.93;;;;;;;;;;4961366;28;19918;-82
2023/06/05 10:30:07;;;;;;;3.00;0.65;;;;;;;;;;4960760;28;20213;-82
2023/06/05 10:32:47;;;;;;;4.60;0.75;;;;;;;;;;4989631;28;20042;-83
2023/06/05 10:36:09;;;;;;;1.95;0.73;;;;;;;;;;4976074;28;20641;-83
2023/06/05 10:38:38;;;;;;;2.08;0.70;;;;;;;;;;4981307;28;20050;-83
2023/06/05 10:41:04;;;;;;;3.90;1.00;;;;;;;;;;4998856;28;20033;-83
2023/06/05 10:43:29;;;;;;;2.92;0.80;;;;;;;;;;5025555;28;20132;-82
2023/06/05 10:45:56;;;;;;;5.63;0.90;;;;;;;;;;5042235;28;20159;-83
2023/06/05 10:48:21;;;;;;;;;;;;;;;;;;5009890;28;20064;-82
2023/06/05 10:50:47;;;;;;;1.93;0.80;;;;;;;;;;5043678;28;19956;-81
2023/06/05 10:53:43;;;;;;;4.03;1.10;;;;;;;;;;5025870;28;20492;-82
2023/06/05 10:56:08;;;;;;;1.98;0.80;;;;;;;;;;5024237;28;20486;-83
2023/06/05 10:58:36;;;;;;;2.27;0.77;;;;;;;;;;5009868;28;20136;-83
2023/06/05 11:01:19;;;;;;;1.92;0.80;;;;;;;;;;5016491;28;20365;-82
2023/06/05 11:04:00;;;;;;;6.72;1.75;;;;;;;;;;5043079;28;20621;-84
2023/06/05 11:06:27;;;;;;;2.45;0.82;;;;;;;;;;5023514;28;20124;-83
2023/06/05 11:09:14;;;;;;;2.53;0.80;;;;;;;;;;5015175;28;20126;-82
2023/06/05 11:12:08;;;;;;;2.53;0.80;;;;;;;;;;5024684;28;20037;-83
2023/06/05 11:14:47;;;;;;;2.63;0.80;;;;;;;;;;5007693;28;20144;-81
2023/06/05 11:17:31;;;;;;;1.70;0.60;;;;;;;;;;5027411;28;20508;-82
2023/06/05 11:19:57;;;;;;;4.53;0.90;;;;;;;;;;5014424;28;20040;-83
2023/06/05 11:22:22;;;;;;;2.63;0.90;;;;;;;;;;5007810;28;20505;-82
2023/06/05 11:25:17;;;;;;;4.50;0.90;;;;;;;;;;5009513;28;20040;-81
2023/06/05 11:27:44;;;;;;;2.65;1.08;;;;;;;;;;5042291;28;20186;-83
2023/06/05 11:30:13;;;;;;;3.97;0.93;;;;;;;;;;5024865;28;20117;-83
2023/06/05 11:32:39;;;;;;;2.88;1.00;;;;;;;;;;5041639;28;20036;-83
2023/06/05 11:35:05;;;;;;;3.40;1.47;;;;;;;;;;5022759;28;20456;-82
2023/06/05 11:37:34;;;;;;;3.53;0.90;;;;;;;;;;5013986;28;20037;-83
2023/06/05 11:40:05;;;;;;;3.47;1.20;;;;;;;;;;5026717;28;20036;-84
2023/06/05 11:42:31;;;;;;;2.70;0.85;;;;;;;;;;5041607;28;20048;-83
2023/06/05 11:44:56;;;;;;;2.07;0.80;;;;;;;;;;5025298;28;20042;-84
2023/06/05 11:47:25;;;;;;;3.57;1.10;;;;;;;;;;5040231;28;20036;-81
2023/06/05 11:49:51;;;;;;;8.93;1.40;;;;;;;;;;5007844;28;20028;-82
2023/06/05 11:52:22;;;;;;;3.87;1.20;;;;;;;;;;5008473;28;20040;-84
2023/06/05 11:55:04;;;;;;;1.92;0.73;;;;;;;;;;5007863;28;20399;-81
2023/06/05 11:57:39;;;;;;;2.50;0.90;;;;;;;;;;5027134;28;20439;-82
2023/06/05 12:00:06;;;;;;;3.47;0.98;;;;;;;;;;5012870;28;20508;-83
2023/06/05 12:02:32;;;;;;;4.45;0.93;;;;;;;;;;5007547;28;20037;-82
2023/06/05 12:04:58;;;;;;;2.78;1.33;;;;;;;;;;5025373;28;20045;-82
2023/06/05 12:07:31;;;;;;;6.38;1.20;;;;;;;;;;5007833;28;20036;-82
2023/06/05 12:09:58;;;;;;;2.17;0.90;;;;;;;;;;5025207;28;20033;-82
2023/06/05 12:12:24;;;;;;;4.75;1.02;;;;;;;;;;5041447;28;20324;-81
2023/06/05 12:14:49;;;;;;;2.70;0.98;;;;;;;;;;5042806;28;20033;-81
2023/06/05 12:17:15;;;;;;;3.75;1.00;;;;;;;;;;5041673;28;20492;-83
2023/06/05 12:19:40;;;;;;;2.30;1.00;;;;;;;;;;5041363;28;20417;-82
2023/06/05 12:22:08;;;;;;;2.40;1.00;;;;;;;;;;5040417;28;20057;-83
2023/06/05 12:24:34;;;;;;;3.22;1.00;;;;;;;;;;5007177;28;20041;-83
2023/06/05 12:27:01;;;;;;;4.45;1.17;;;;;;;;;;5023341;28;20044;-84
2023/06/05 12:29:30;;;;;;;;;;;;;;;;;;5013772;28;20515;-79
2023/06/05 12:31:57;;;;;;;2.58;0.90;;;;;;;;;;5040543;28;19944;-78
2023/06/05 12:34:58;;;;;;;4.00;1.13;;;;;;;;;;5024123;28;20921;-78
2023/06/05 12:37:37;;;;;;;2.65;1.00;;;;;;;;;;4899257;29;20051;-78
2023/06/05 12:40:07;;;;;;;3.42;1.05;;;;;;;;;;5012639;28;20413;-79
2023/06/05 12:42:37;;;;;;;3.17;1.15;;;;;;;;;;5007223;28;20124;-80
2023/06/05 12:45:03;;;;;;;2.95;1.17;;;;;;;;;;5008415;28;20044;-79
2023/06/05 12:47:29;;;;;;;4.63;1.10;;;;;;;;;;5039530;28;20033;-81
2023/06/05 12:49:56;;;;;;;3.03;1.42;;;;;;;;;;5024168;28;20496;-78
2023/06/05 12:52:25;;;;;;;;;;;;;;;;;;5041472;28;20147;-79
2023/06/05 12:54:51;;;;;;;3.60;1.10;;;;;;;;;;5041368;28;19925;-79
2023/06/05 12:57:20;;;;;;;3.28;1.20;;;;;;;;;;5041084;28;20075;-79
2023/06/05 12:59:46;;;;;;;2.60;1.17;;;;;;;;;;5031025;28;20041;-84
2023/06/05 13:02:11;;;;;;;3.17;1.45;;;;;;;;;;5041470;28;20605;-82
2023/06/05 13:04:39;;;;;;;6.95;1.10;;;;;;;;;;5023752;28;20395;-82
2023/06/05 13:07:05;;;;;;;4.22;1.20;;;;;;;;;;5006962;28;20797;-82
2023/06/05 13:09:31;;;;;;;3.30;1.10;;;;;;;;;;5040773;28;20091;-83
2023/06/05 13:11:59;;;;;;;2.95;1.20;;;;;;;;;;5013073;28;20041;-82
2023/06/05 13:14:24;;;;;;;2.42;1.00;;;;;;;;;;5007016;28;20041;-82
2023/06/05 13:16:50;;;;;;;3.95;1.20;;;;;;;;;;5013462;28;20035;-79
2023/06/05 13:19:15;;;;;;;3.28;1.00;;;;;;;;;;5012457;28;20043;-79
2023/06/05 13:21:43;;;;;;;3.33;1.10;;;;;;;;;;5043520;28;20052;-79
2023/06/05 13:24:08;;;;;;;3.35;0.90;;;;;;;;;;5016674;28;20497;-80
2023/06/05 13:26:34;;;;;;;2.90;1.10;;;;;;;;;;5042974;28;20041;-80
2023/06/05 13:28:59;;;;;;;3.60;1.30;;;;;;;;;;5011450;28;20516;-79
2023/06/05 13:31:25;;;;;;;3.10;1.10;;;;;;;;;;5044606;28;20056;-79
2023/06/05 13:33:51;;;;;;;2.35;0.90;;;;;;;;;;5011409;28;20489;-79
2023/06/05 13:36:16;;;;;;;2.60;1.10;;;;;;;;;;5027315;28;20798;-80
2023/06/05 13:38:42;;;;;;;3.40;1.00;;;;;;;;;;5045843;28;20029;-80
2023/06/05 13:41:08;;;;;;;2.83;1.10;;;;;;;;;;5026069;28;20040;-80
2023/06/05 13:43:34;;;;;;;2.33;1.00;;;;;;;;;;5044910;28;20279;-79
2023/06/05 13:46:00;;;;;;;2.50;1.00;;;;;;;;;;5016706;28;20574;-79
2023/06/05 13:48:25;;;;;;;4.33;1.10;;;;;;;;;;5010775;28;20049;-80
2023/06/05 13:50:51;;;;;;;2.30;1.10;;;;;;;;;;5044400;28;20040;-79
2023/06/05 13:53:16;;;;;;;2.03;0.87;;;;;;;;;;5044769;28;20033;-80
2023/06/05 13:55:41;;;;;;;2.80;1.20;;;;;;;;;;5009279;28;20809;-79
2023/06/05 13:58:07;;;;;;;2.90;1.20;;;;;;;;;;5044600;28;20044;-81
2023/06/05 14:00:33;;;;;;;3.30;1.00;;;;;;;;;;5025934;28;20047;-80
2023/06/05 14:03:00;;;;;;;2.10;0.90;;;;;;;;;;5033746;28;20055;-80
2023/06/05 14:05:26;;;;;;;2.97;1.17;;;;;;;;;;5002168;28;20588;-79
2023/06/05 14:07:52;;;;;;;2.35;1.10;;;;;;;;;;5020617;28;20133;-80
2023/06/05 14:10:20;;;;;;;3.42;1.20;;;;;;;;;;5023537;28;20045;-80
2023/06/05 14:12:45;;;;;;;2.60;1.08;;;;;;;;;;5009824;28;20086;-79
2023/06/05 14:15:11;;;;;;;3.08;1.20;;;;;;;;;;5026747;28;20500;-79
2023/06/05 14:17:36;;;;;;;2.60;1.10;;;;;;;;;;5026532;28;24683;-79
2023/06/05 14:20:02;;;;;;;3.08;1.00;;;;;;;;;;5026137;28;20124;-80
2023/06/05 14:22:27;;;;;;;2.60;1.20;;;;;;;;;;5009758;28;20041;-79
2023/06/05 14:24:53;;;;;;;2.53;1.20;;;;;;;;;;5025783;28;20037;-79
2023/06/05 14:27:21;;;;;;;2.97;1.30;;;;;;;;;;5037137;28;20120;-79
2023/06/05 14:29:46;;;;;;;2.50;1.10;;;;;;;;;;5027033;28;20392;-79
2023/06/05 14:32:12;;;;;;;4.85;1.10;;;;;;;;;;5043143;28;20036;-78
2023/06/05 14:34:37;;;;;;;4.13;1.70;;;;;;;;;;5026565;28;20036;-78
2023/06/05 14:37:06;;;;;;;5.90;1.20;;;;;;;;;;5003489;28;20061;-79
2023/06/05 14:39:31;;;;;;;5.63;1.33;;;;;;;;;;5026712;28;20559;-79
2023/06/05 14:41:56;;;;;;;3.28;1.45;;;;;;;;;;5042621;28;20037;-79
2023/06/05 14:44:22;;;;;;;3.97;1.20;;;;;;;;;;5025452;28;20526;-79
2023/06/05 14:46:47;;;;;;;4.60;1.40;;;;;;;;;;5008354;28;20041;-79
2023/06/05 14:49:12;;;;;;;2.75;1.20;;;;;;;;;;5044787;28;20067;-79